Materlandia, Brazil
Current Conditions -  °F | °C
As of 8:00 AM on Saturday 29 Nov 2014 (Local Time) from SBIP Reporting Station
Overcast Overcast  
Wind Chill: 73°   Ceiling: 3000
Heat Index: 73°   Visibility: 6mi
Dew Point: 70°   Wind: 5mph
Humidity: 88%   Direction: 230°SW
Pressure: 30"   Gusts: NA
Location:  18.47°S, 43.06°W
Report Text: SBIP 291000Z 23004KT 9999 FEW010 BKN030 OVC070 23/21 Q1016
Loading
Personal Weather Stations






























Interactive Weather Map New forecast layout! Learn more

10-Day Weather Forecast

Advertisements
Track Severe Weather on mobile